createdAt,value
2022-09-09T00:00:48.193Z,9.30
2022-09-09T00:03:45.967Z,10.20
2022-09-09T00:06:24.128Z,7.40
2022-09-09T00:09:01.978Z,10.20
2022-09-09T00:11:41.002Z,8.20
2022-09-09T00:14:19.154Z,9.10
2022-09-09T00:16:53.110Z,8.80
2022-09-09T00:19:27.695Z,9.10
2022-09-09T00:22:07.204Z,5.80
2022-09-09T00:24:42.706Z,10.70
2022-09-09T00:27:20.119Z,7.60
2022-09-09T00:29:54.666Z,10.40
2022-09-09T00:32:28.254Z,11.90
2022-09-09T00:35:00.833Z,8.50
2022-09-09T00:37:32.438Z,9.50
2022-09-09T00:40:09.999Z,8.10
2022-09-09T00:42:43.477Z,8.20
2022-09-09T00:45:32.231Z,8.00
2022-09-09T00:48:07.147Z,8.90
2022-09-09T00:50:46.883Z,7.90
2022-09-09T00:53:28.659Z,9.90
2022-09-09T00:56:09.499Z,10.10
2022-09-09T00:58:37.917Z,9.00
2022-09-09T01:01:11.659Z,14.10
2022-09-09T01:03:49.070Z,9.80
2022-09-09T01:06:23.644Z,7.40
2022-09-09T01:09:11.374Z,8.70
2022-09-09T01:11:50.898Z,8.00
2022-09-09T01:14:33.236Z,7.60
2022-09-09T01:17:12.046Z,9.10
2022-09-09T01:19:54.548Z,8.50
2022-09-09T01:22:35.062Z,8.20
2022-09-09T01:25:31.980Z,10.80
2022-09-09T01:28:11.172Z,7.40
2022-09-09T01:30:42.254Z,8.10
2022-09-09T01:33:16.730Z,7.20
2022-09-09T01:35:51.319Z,9.90
2022-09-09T01:38:21.293Z,10.30
2022-09-09T01:40:52.687Z,10.50
2022-09-09T01:43:24.492Z,11.20
2022-09-09T01:45:56.614Z,9.60
2022-09-09T01:48:25.871Z,9.40
2022-09-09T01:51:05.220Z,10.90
2022-09-09T01:53:33.715Z,10.50
2022-09-09T01:56:12.703Z,10.10
2022-09-09T01:58:56.734Z,8.30
2022-09-09T02:01:34.130Z,10.40
2022-09-09T02:04:08.644Z,9.30
2022-09-09T02:06:40.766Z,11.70
2022-09-09T02:09:23.283Z,10.90
2022-09-09T02:11:59.437Z,10.60
2022-09-09T02:14:43.191Z,9.90
2022-09-09T02:17:14.886Z,12.90
2022-09-09T02:20:08.460Z,10.50
2022-09-09T02:22:50.879Z,11.80
2022-09-09T02:25:23.317Z,9.10
2022-09-09T02:27:52.962Z,12.50
2022-09-09T02:30:22.162Z,10.80
2022-09-09T02:32:57.620Z,9.60
2022-09-09T02:35:30.972Z,10.40
2022-09-09T02:38:04.017Z,10.50
2022-09-09T02:40:33.193Z,10.50
2022-09-09T02:43:03.389Z,9.50
2022-09-09T02:45:39.593Z,9.50
2022-09-09T02:48:15.517Z,9.20
2022-09-09T02:50:56.633Z,8.80
2022-09-09T02:53:32.985Z,9.50
2022-09-09T02:56:05.333Z,9.50
2022-09-09T02:58:35.987Z,9.60
2022-09-09T03:01:06.564Z,9.40
2022-09-09T03:03:35.110Z,11.20
2022-09-09T03:06:06.473Z,9.30
2022-09-09T03:08:34.913Z,9.50
2022-09-09T03:11:04.379Z,14.30
2022-09-09T03:13:35.071Z,19.30
2022-09-09T03:16:05.158Z,11.10
2022-09-09T03:18:35.178Z,11.70
2022-09-09T03:21:03.828Z,8.40
2022-09-09T03:23:32.265Z,10.20
2022-09-09T03:26:02.625Z,10.80
2022-09-09T03:28:37.940Z,7.90
2022-09-09T03:31:10.864Z,9.20
2022-09-09T03:33:42.053Z,8.10
2022-09-09T03:36:12.783Z,10.00
2022-09-09T03:38:41.198Z,10.40
2022-09-09T03:41:09.917Z,7.50
2022-09-09T03:43:39.129Z,9.60
2022-09-09T03:46:08.420Z,10.90
2022-09-09T03:48:36.933Z,9.40
2022-09-09T03:51:05.771Z,7.90
2022-09-09T03:53:34.732Z,9.80
2022-09-09T03:56:07.107Z,8.80
2022-09-09T03:58:37.035Z,10.40
2022-09-09T04:01:13.561Z,11.30
2022-09-09T04:03:42.749Z,9.30
2022-09-09T04:06:13.691Z,10.40
2022-09-09T04:08:42.879Z,8.70
2022-09-09T04:11:11.535Z,10.70
2022-09-09T04:13:40.610Z,11.40
2022-09-09T04:16:13.492Z,10.00
2022-09-09T04:18:42.575Z,10.60
2022-09-09T04:21:12.557Z,13.50
2022-09-09T04:23:41.501Z,11.80
2022-09-09T04:26:10.524Z,10.20
2022-09-09T04:28:39.340Z,12.90
2022-09-09T04:31:18.382Z,12.40
2022-09-09T04:33:47.545Z,11.20
2022-09-09T04:36:16.341Z,14.00
2022-09-09T04:38:44.836Z,11.80
2022-09-09T04:41:13.911Z,10.90
2022-09-09T04:43:43.949Z,13.70
2022-09-09T04:46:12.722Z,11.00
2022-09-09T04:48:41.227Z,10.80
2022-09-09T04:51:12.735Z,10.80
2022-09-09T04:53:41.253Z,11.20
2022-09-09T04:56:11.657Z,11.30
2022-09-09T04:58:44.389Z,14.70
2022-09-09T05:01:14.977Z,14.00
2022-09-09T05:03:46.221Z,12.40
2022-09-09T05:06:17.815Z,12.50
2022-09-09T05:08:46.911Z,11.80
2022-09-09T05:11:18.741Z,13.30
2022-09-09T05:13:48.227Z,10.00
2022-09-09T05:16:17.881Z,15.00
2022-09-09T05:18:49.399Z,14.10
2022-09-09T05:21:20.617Z,19.00
2022-09-09T05:23:49.067Z,18.70
2022-09-09T05:26:20.046Z,17.70
2022-09-09T05:28:50.012Z,17.90
2022-09-09T05:31:19.657Z,19.90
2022-09-09T05:33:50.023Z,16.30
2022-09-09T05:36:20.833Z,16.70
2022-09-09T05:38:54.053Z,16.90
2022-09-09T05:41:23.640Z,19.00
2022-09-09T05:43:52.533Z,17.20
2022-09-09T05:46:24.388Z,20.40
2022-09-09T05:48:54.906Z,20.50
2022-09-09T05:51:33.348Z,19.30
2022-09-09T05:54:06.789Z,16.60
2022-09-09T05:56:37.166Z,17.00
2022-09-09T05:59:06.686Z,16.30
2022-09-09T06:01:38.897Z,16.70
2022-09-09T06:04:07.730Z,16.60
2022-09-09T06:06:38.873Z,17.30
2022-09-09T06:09:12.195Z,20.10
2022-09-09T06:11:43.196Z,18.10
2022-09-09T06:14:11.732Z,17.70
2022-09-09T06:16:44.422Z,17.80
2022-09-09T06:19:19.019Z,18.60
2022-09-09T06:21:48.333Z,16.70
2022-09-09T06:24:17.797Z,17.00
2022-09-09T06:26:46.470Z,17.40
2022-09-09T06:29:19.263Z,17.50
2022-09-09T06:31:48.493Z,19.70
2022-09-09T06:34:25.181Z,26.70
2022-09-09T06:36:58.773Z,21.60
2022-09-09T06:39:28.043Z,20.80
2022-09-09T06:41:58.992Z,21.40
2022-09-09T06:44:46.337Z,22.30
2022-09-09T06:47:20.402Z,24.90
2022-09-09T06:49:49.117Z,18.60
2022-09-09T06:52:18.608Z,17.80
2022-09-09T06:54:47.054Z,23.10
2022-09-09T06:57:36.050Z,19.00
2022-09-09T07:00:06.697Z,20.30
2022-09-09T07:02:39.350Z,23.30
2022-09-09T07:05:09.758Z,21.40
2022-09-09T07:07:38.719Z,21.00
2022-09-09T07:10:08.309Z,20.40
2022-09-09T07:12:37.952Z,23.50
2022-09-09T07:15:08.156Z,21.90
2022-09-09T07:17:36.670Z,20.10
2022-09-09T07:20:07.375Z,20.80
2022-09-09T07:22:36.489Z,22.10
2022-09-09T07:25:07.342Z,22.30
2022-09-09T07:27:35.809Z,23.70
2022-09-09T07:30:06.760Z,23.50
2022-09-09T07:32:35.448Z,21.40
2022-09-09T07:35:04.538Z,25.00
2022-09-09T07:37:32.928Z,23.50
2022-09-09T07:40:04.068Z,27.10
2022-09-09T07:42:33.774Z,25.00
2022-09-09T07:45:02.136Z,23.90
2022-09-09T07:47:30.818Z,20.70
2022-09-09T07:49:59.179Z,26.10
2022-09-09T07:52:29.448Z,21.90
2022-09-09T07:55:02.577Z,24.80
2022-09-09T07:57:32.296Z,27.00
2022-09-09T08:00:01.104Z,21.40
2022-09-09T08:02:30.565Z,25.30
2022-09-09T08:04:59.318Z,23.90
2022-09-09T08:07:28.900Z,21.50
2022-09-09T08:09:57.637Z,23.10
2022-09-09T08:12:32.668Z,31.20
2022-09-09T08:15:01.252Z,29.30
2022-09-09T08:17:33.379Z,26.60
2022-09-09T08:20:06.652Z,22.60
2022-09-09T08:22:35.598Z,23.40
2022-09-09T08:25:06.845Z,30.10
2022-09-09T08:27:35.641Z,27.30
2022-09-09T08:30:05.783Z,24.50
2022-09-09T08:32:35.628Z,30.30
2022-09-09T08:35:08.096Z,28.20
2022-09-09T08:37:37.548Z,30.70
2022-09-09T08:40:17.886Z,30.50
2022-09-09T08:42:50.418Z,29.10
2022-09-09T08:45:29.140Z,26.50
2022-09-09T08:48:22.094Z,28.40
2022-09-09T08:50:52.946Z,26.80
2022-09-09T08:53:30.578Z,31.70
2022-09-09T08:56:02.047Z,32.20
2022-09-09T08:58:51.943Z,29.30
2022-09-09T09:01:41.621Z,34.50
2022-09-09T09:04:29.472Z,29.50
2022-09-09T09:07:09.571Z,30.80
2022-09-09T09:09:46.898Z,29.50
2022-09-09T09:12:21.221Z,32.00
2022-09-09T09:14:50.406Z,29.00
2022-09-09T09:17:23.402Z,33.70
2022-09-09T09:19:52.510Z,31.80
2022-09-09T09:22:24.913Z,37.80
2022-09-09T09:25:01.547Z,39.00
2022-09-09T09:27:35.709Z,34.80
2022-09-09T09:30:29.868Z,37.70
2022-09-09T09:33:12.640Z,36.80
2022-09-09T09:35:43.275Z,37.80
2022-09-09T09:41:08.194Z,39.00
2022-09-09T09:43:42.782Z,37.10
2022-09-09T09:46:23.727Z,37.80
2022-09-09T09:48:59.511Z,42.60
2022-09-09T09:51:31.002Z,37.40
2022-09-09T09:54:15.357Z,42.40
2022-09-09T09:56:46.081Z,39.90
2022-09-09T09:59:41.830Z,36.20
2022-09-09T10:02:21.187Z,34.20
2022-09-09T10:05:04.034Z,32.10
2022-09-09T10:07:33.724Z,36.50
2022-09-09T10:10:02.351Z,40.60
2022-09-09T10:12:47.193Z,34.70
2022-09-09T10:15:31.129Z,43.60
2022-09-09T10:18:14.828Z,40.40
2022-09-09T10:20:54.643Z,37.60
2022-09-09T10:23:38.230Z,45.70
2022-09-09T10:26:24.778Z,40.80
2022-09-09T10:29:19.413Z,40.70
2022-09-09T10:31:57.212Z,42.10
2022-09-09T10:34:47.153Z,41.20
2022-09-09T10:37:28.419Z,39.80
2022-09-09T10:40:05.918Z,47.00
2022-09-09T10:42:35.089Z,39.30
2022-09-09T10:45:18.127Z,44.20
2022-09-09T10:48:01.080Z,40.20
2022-09-09T10:53:46.457Z,43.70
2022-09-09T10:56:19.588Z,43.10
2022-09-09T10:58:53.611Z,45.70
2022-09-09T11:01:26.443Z,48.00
2022-09-09T11:04:00.039Z,46.10
2022-09-09T11:06:33.483Z,47.60
2022-09-09T11:09:05.446Z,44.70
2022-09-09T11:11:40.227Z,41.90
2022-09-09T11:14:16.587Z,41.10
2022-09-09T11:16:51.533Z,39.10
2022-09-09T11:19:27.482Z,41.10
2022-09-09T11:21:58.360Z,40.50
2022-09-09T11:24:32.942Z,39.80
2022-09-09T11:27:07.782Z,36.40
2022-09-09T11:30:07.839Z,41.70
2022-09-09T11:33:00.713Z,36.90
2022-09-09T11:35:40.526Z,34.60
2022-09-09T11:38:22.234Z,38.50
2022-09-09T11:40:59.860Z,42.50
2022-09-09T11:43:33.917Z,37.50
2022-09-09T11:46:04.137Z,37.00
2022-09-09T11:48:35.840Z,36.10
2022-09-09T11:51:09.204Z,37.70
2022-09-09T11:53:50.474Z,35.60
2022-09-09T11:56:31.156Z,36.00
2022-09-09T11:59:03.275Z,36.20
2022-09-09T12:01:41.852Z,32.90
2022-09-09T12:04:37.044Z,34.80
2022-09-09T12:07:24.231Z,30.50
2022-09-09T12:09:57.328Z,29.60
2022-09-09T12:12:29.600Z,30.90
2022-09-09T12:15:14.335Z,33.10
2022-09-09T12:17:45.906Z,31.10
2022-09-09T12:20:18.386Z,30.90
2022-09-09T12:23:10.927Z,30.90
2022-09-09T12:25:59.192Z,32.10
2022-09-09T12:28:45.225Z,30.50
2022-09-09T12:31:22.567Z,29.20
2022-09-09T12:33:53.188Z,28.50
2022-09-09T12:36:26.240Z,29.40
2022-09-09T12:38:57.371Z,28.20
2022-09-09T12:41:29.269Z,29.50
2022-09-09T12:44:10.478Z,31.20
2022-09-09T12:46:42.809Z,27.20
2022-09-09T12:49:29.158Z,29.60
2022-09-09T12:52:17.959Z,26.50
2022-09-09T12:54:47.910Z,26.20
2022-09-09T12:57:16.953Z,26.00
2022-09-09T12:59:46.293Z,27.80
2022-09-09T13:02:23.803Z,22.90
2022-09-09T13:05:06.559Z,30.70
2022-09-09T13:07:35.163Z,23.30
2022-09-09T13:10:04.984Z,26.60
2022-09-09T13:16:36.719Z,24.40
2022-09-09T13:19:14.832Z,21.40
2022-09-09T13:21:43.768Z,24.30
2022-09-09T13:24:29.776Z,22.00
2022-09-09T13:27:02.371Z,35.30
2022-09-09T13:29:32.574Z,25.80
2022-09-09T13:32:08.177Z,22.10
2022-09-09T13:34:36.997Z,23.80
2022-09-09T13:37:07.363Z,19.80
2022-09-09T13:39:37.952Z,19.20
2022-09-09T13:42:22.914Z,23.80
2022-09-09T13:44:54.809Z,21.70
2022-09-09T13:47:31.611Z,24.30
2022-09-09T13:50:10.257Z,23.40
2022-09-09T13:52:39.402Z,18.70
2022-09-09T13:55:10.909Z,22.50
2022-09-09T13:57:39.370Z,25.30
2022-09-09T14:00:14.369Z,20.00
2022-09-09T14:02:44.531Z,27.00
2022-09-09T14:07:56.638Z,23.50
2022-09-09T14:10:25.045Z,25.20
2022-09-09T14:12:53.603Z,24.70
2022-09-09T14:15:22.575Z,23.60
2022-09-09T14:17:52.585Z,24.80
2022-09-09T14:20:21.656Z,21.50
2022-09-09T14:22:50.059Z,25.00
2022-09-09T14:25:18.681Z,25.70
2022-09-09T14:27:47.338Z,24.90
2022-09-09T14:30:15.847Z,23.60
2022-09-09T14:32:44.215Z,23.70
2022-09-09T14:35:17.744Z,24.30
2022-09-09T14:37:46.840Z,22.70
2022-09-09T14:40:15.679Z,22.30
2022-09-09T14:42:44.101Z,23.10
2022-09-09T14:45:22.024Z,24.00
2022-09-09T14:47:52.305Z,24.00
2022-09-09T14:50:21.989Z,22.70
2022-09-09T14:52:50.943Z,23.20
2022-09-09T14:55:19.533Z,24.60
2022-09-09T14:57:48.093Z,25.80
2022-09-09T15:00:17.244Z,24.30
2022-09-09T15:02:45.765Z,24.90
2022-09-09T15:05:15.558Z,20.90
2022-09-09T15:07:44.052Z,25.60
2022-09-09T15:10:12.571Z,21.20
2022-09-09T15:12:42.273Z,21.30
2022-09-09T15:15:12.906Z,22.40
2022-09-09T15:17:45.836Z,20.50
2022-09-09T15:20:14.269Z,17.70
2022-09-09T15:22:43.213Z,18.80
2022-09-09T15:25:12.943Z,21.60
2022-09-09T15:27:41.517Z,20.30
2022-09-09T15:30:12.556Z,22.80
2022-09-09T15:32:41.042Z,19.40
2022-09-09T15:35:09.924Z,20.20
2022-09-09T15:37:38.359Z,18.80
2022-09-09T15:40:10.704Z,20.60
2022-09-09T15:52:03.693Z,26.20
2022-09-09T15:54:34.918Z,27.90
2022-09-09T15:57:08.173Z,30.00
2022-09-09T15:59:36.662Z,27.60
2022-09-09T16:02:07.759Z,35.40
2022-09-09T16:04:36.850Z,27.30
2022-09-09T16:07:06.953Z,41.00
2022-09-09T16:09:36.025Z,53.10
2022-09-09T16:12:09.964Z,87.10
2022-09-09T16:14:39.161Z,55.20
2022-09-09T16:17:08.048Z,35.70
2022-09-09T16:19:36.616Z,30.40
2022-09-09T16:22:06.983Z,59.10
2022-09-09T16:24:35.584Z,37.80
2022-09-09T16:27:04.776Z,37.70
2022-09-09T16:29:33.323Z,34.10
2022-09-09T16:32:04.320Z,37.20
2022-09-09T16:34:34.057Z,26.30
2022-09-09T16:37:02.595Z,35.30
2022-09-09T16:39:31.064Z,27.30
2022-09-09T16:42:00.158Z,30.50
2022-09-09T16:44:28.589Z,29.20
2022-09-09T16:47:10.078Z,28.80
2022-09-09T16:49:52.924Z,28.60
2022-09-09T16:52:21.317Z,26.90
2022-09-09T16:54:49.935Z,30.10
2022-09-09T16:57:18.628Z,25.70
2022-09-09T16:59:48.668Z,26.40
2022-09-09T17:02:17.334Z,27.70
2022-09-09T17:05:14.578Z,26.60
2022-09-09T17:07:44.562Z,24.90
2022-09-09T17:10:14.256Z,27.40
2022-09-09T17:12:42.995Z,30.30
2022-09-09T17:15:11.863Z,25.80
2022-09-09T17:17:40.529Z,27.60
2022-09-09T17:20:10.368Z,27.70
2022-09-09T17:22:38.884Z,31.70
2022-09-09T17:25:10.469Z,24.70
2022-09-09T17:27:38.909Z,29.50
2022-09-09T17:30:09.927Z,28.90
2022-09-09T17:32:38.400Z,32.60
2022-09-09T17:36:17.593Z,26.10
2022-09-09T17:38:47.196Z,26.90
2022-09-09T17:41:17.812Z,33.10
2022-09-09T17:43:46.961Z,32.80
2022-09-09T17:46:17.708Z,34.90
2022-09-09T17:48:46.499Z,31.00
2022-09-09T17:56:32.585Z,31.10
2022-09-09T17:59:02.861Z,30.20
2022-09-09T18:01:57.325Z,29.60
2022-09-09T18:04:26.050Z,33.90
2022-09-09T18:06:54.973Z,29.60
2022-09-09T18:09:25.877Z,29.10
2022-09-09T18:11:56.612Z,33.40
2022-09-09T18:14:28.229Z,32.90
2022-09-09T18:16:57.506Z,30.40
2022-09-09T18:19:30.036Z,32.60
2022-09-09T18:22:02.302Z,41.70
2022-09-09T18:24:32.784Z,34.10
2022-09-09T18:27:01.574Z,36.40
2022-09-09T18:29:31.254Z,32.10
2022-09-09T18:31:59.960Z,28.40
2022-09-09T18:34:29.648Z,34.00
2022-09-09T18:36:59.485Z,32.00
2022-09-09T18:39:29.836Z,33.70
2022-09-09T18:42:01.176Z,33.10
2022-09-09T18:44:33.612Z,34.50
2022-09-09T18:47:03.108Z,36.00
2022-09-09T18:49:33.113Z,36.40
2022-09-09T18:52:03.786Z,32.90
2022-09-09T18:54:33.774Z,34.40
2022-09-09T18:57:02.422Z,43.10
2022-09-09T19:00:26.098Z,38.70
2022-09-09T19:03:02.540Z,40.30
2022-09-09T19:05:33.449Z,38.30
2022-09-09T19:08:03.315Z,39.10
2022-09-09T19:10:35.659Z,42.60
2022-09-09T19:13:08.768Z,43.20
2022-09-09T19:15:40.069Z,42.10
2022-09-09T19:18:08.755Z,43.90
2022-09-09T19:20:37.698Z,42.00
2022-09-09T19:23:06.376Z,47.80
2022-09-09T19:25:37.023Z,48.20
2022-09-09T19:28:05.888Z,45.00
2022-09-09T19:30:36.859Z,52.80
2022-09-09T19:33:06.179Z,44.00
2022-09-09T19:35:34.690Z,45.50
2022-09-09T19:38:03.216Z,49.50
2022-09-09T19:40:33.078Z,48.40
2022-09-09T19:43:01.565Z,50.10
2022-09-09T19:45:30.069Z,48.00
2022-09-09T19:47:58.630Z,53.10
2022-09-09T19:50:28.428Z,52.80
2022-09-09T19:52:59.361Z,50.20
2022-09-09T19:55:28.999Z,54.90
2022-09-09T19:57:57.885Z,55.10
2022-09-09T20:00:26.715Z,53.50
2022-09-09T20:03:17.775Z,56.40
2022-09-09T20:05:44.069Z,58.80
2022-09-09T20:08:12.493Z,52.30
2022-09-09T20:10:50.120Z,53.40
2022-09-09T20:13:18.791Z,48.20
2022-09-09T20:15:56.084Z,50.50
2022-09-09T20:18:27.228Z,53.20
2022-09-09T20:20:59.848Z,53.10
2022-09-09T20:23:29.369Z,54.50
2022-09-09T20:26:02.600Z,51.70
2022-09-09T20:28:31.223Z,54.30
2022-09-09T20:31:05.292Z,55.60
2022-09-09T20:33:35.504Z,54.30
2022-09-09T20:36:11.844Z,54.80
2022-09-09T20:38:45.875Z,52.40
2022-09-09T20:41:18.029Z,52.60
2022-09-09T20:43:48.261Z,56.30
2022-09-09T20:46:17.861Z,52.70
2022-09-09T20:48:47.272Z,54.20
2022-09-09T20:51:16.858Z,55.40
2022-09-09T20:53:45.572Z,51.50
2022-09-09T20:56:16.288Z,54.70
2022-09-09T20:58:45.438Z,54.50
2022-09-09T21:01:17.183Z,51.70
2022-09-09T21:03:46.282Z,56.10
2022-09-09T21:06:16.528Z,56.10
2022-09-09T21:08:45.430Z,51.90
2022-09-09T21:11:15.445Z,52.00
2022-09-09T21:13:44.234Z,54.40
2022-09-09T21:16:15.038Z,53.40
2022-09-09T21:18:43.791Z,52.80
2022-09-09T21:21:13.135Z,55.90
2022-09-09T21:23:42.054Z,55.80
2022-09-09T21:26:10.733Z,54.30
2022-09-09T21:28:39.584Z,58.10
2022-09-09T21:31:13.063Z,54.70
2022-09-09T21:33:42.364Z,55.90
2022-09-09T21:36:12.540Z,58.70
2022-09-09T21:39:13.226Z,56.80
2022-09-09T21:41:41.691Z,53.90
2022-09-09T21:44:13.739Z,58.90
2022-09-09T21:46:43.281Z,58.80
2022-09-09T21:49:12.001Z,58.40
2022-09-09T21:51:40.411Z,59.10
2022-09-09T21:54:08.938Z,59.70
2022-09-09T21:56:37.355Z,59.60
2022-09-09T21:59:07.973Z,58.90
2022-09-09T22:01:36.581Z,56.10
2022-09-09T22:04:05.380Z,55.10
2022-09-09T22:06:34.707Z,59.20
2022-09-09T22:09:31.184Z,55.60
2022-09-09T22:11:59.758Z,57.50
2022-09-09T22:14:28.385Z,52.70
2022-09-09T22:16:59.643Z,61.60
2022-09-09T22:19:28.001Z,57.40
2022-09-09T22:21:56.412Z,61.50
2022-09-09T22:24:26.951Z,58.10
2022-09-09T22:26:55.357Z,57.30
2022-09-09T22:29:23.829Z,58.70
2022-09-09T22:31:52.658Z,60.80
2022-09-09T22:34:21.098Z,59.80
2022-09-09T22:36:50.422Z,59.60
2022-09-09T22:39:19.625Z,63.20
2022-09-09T22:41:48.466Z,64.10
2022-09-09T22:44:17.361Z,63.20
2022-09-09T22:46:45.980Z,59.20
2022-09-09T22:49:14.381Z,59.40
2022-09-09T22:51:43.354Z,58.70
2022-09-09T22:54:11.764Z,59.50
2022-09-09T22:56:40.636Z,56.30
2022-09-09T22:59:11.413Z,57.80
2022-09-09T23:01:40.042Z,52.40
2022-09-09T23:04:09.195Z,55.00
2022-09-09T23:06:39.363Z,60.30
2022-09-09T23:09:07.910Z,66.40
2022-09-09T23:11:37.594Z,69.60
2022-09-09T23:14:10.065Z,59.60
2022-09-09T23:16:42.525Z,64.40
2022-09-09T23:19:15.174Z,62.40
2022-09-09T23:21:45.627Z,59.30
2022-09-09T23:24:16.051Z,64.20
2022-09-09T23:26:44.968Z,64.80
2022-09-09T23:29:14.470Z,66.20
2022-09-09T23:31:44.577Z,61.20
2022-09-09T23:34:13.757Z,65.20
2022-09-09T23:36:42.428Z,58.80
2022-09-09T23:39:12.912Z,63.30
2022-09-09T23:41:41.475Z,62.70
2022-09-09T23:44:11.495Z,57.70
2022-09-09T23:46:40.123Z,62.20
2022-09-09T23:49:09.253Z,59.50
2022-09-09T23:51:37.916Z,61.20
2022-09-09T23:54:06.418Z,64.10
2022-09-09T23:56:38.213Z,58.30
2022-09-09T23:59:07.688Z,70.20
